createdAt,value
2018-05-31T00:00:04.154Z,14.96
2018-05-31T00:05:04.157Z,14.89
2018-05-31T00:10:04.180Z,14.81
2018-05-31T00:15:04.160Z,14.77
2018-05-31T00:20:04.167Z,14.73
2018-05-31T00:25:04.231Z,14.67
2018-05-31T00:30:04.387Z,14.59
2018-05-31T00:35:04.173Z,14.57
2018-05-31T00:40:04.192Z,14.6
2018-05-31T00:45:04.179Z,14.65
2018-05-31T00:50:04.185Z,14.71
2018-05-31T00:55:04.187Z,14.79
2018-05-31T01:00:04.195Z,14.89
2018-05-31T01:05:04.192Z,14.95
2018-05-31T01:10:04.192Z,15.02
2018-05-31T01:15:04.220Z,15
2018-05-31T01:20:04.198Z,14.97
2018-05-31T01:25:04.204Z,14.94
2018-05-31T01:30:04.222Z,14.87
2018-05-31T01:35:04.325Z,14.79
2018-05-31T01:40:04.209Z,14.81
2018-05-31T01:45:04.287Z,14.82
2018-05-31T01:50:04.214Z,14.78
2018-05-31T01:55:04.216Z,14.69
2018-05-31T02:00:04.229Z,14.62
2018-05-31T02:05:04.227Z,14.6
2018-05-31T02:10:04.232Z,14.56
2018-05-31T02:15:04.227Z,14.51
2018-05-31T02:20:04.246Z,14.43
2018-05-31T02:25:04.237Z,14.37
2018-05-31T02:30:04.236Z,14.26
2018-05-31T02:35:04.257Z,14.2
2018-05-31T02:40:04.245Z,14.18
2018-05-31T02:45:04.244Z,14.24
2018-05-31T02:50:04.323Z,14.18
2018-05-31T02:55:04.262Z,14.28
2018-05-31T03:00:04.252Z,14.3
2018-05-31T03:05:04.257Z,14.28
2018-05-31T03:10:04.280Z,14.36
2018-05-31T03:15:04.266Z,14.32
2018-05-31T03:20:04.263Z,14.36
2018-05-31T03:25:04.283Z,14.39
2018-05-31T03:30:04.267Z,14.44
2018-05-31T03:35:04.271Z,14.41
2018-05-31T03:40:04.279Z,14.36
2018-05-31T03:45:04.279Z,14.4
2018-05-31T03:50:04.277Z,14.36
2018-05-31T03:55:04.301Z,14.4
2018-05-31T04:00:04.291Z,14.45
2018-05-31T04:05:04.291Z,14.53
2018-05-31T04:10:04.308Z,14.56
2018-05-31T04:15:04.293Z,14.6
2018-05-31T04:20:04.412Z,14.72
2018-05-31T04:25:04.313Z,14.86
2018-05-31T04:30:04.302Z,15
2018-05-31T04:35:04.302Z,15.14
2018-05-31T04:40:04.322Z,15.27
2018-05-31T04:45:04.316Z,15.43
2018-05-31T04:50:04.309Z,15.54
2018-05-31T04:55:04.338Z,15.69
2018-05-31T05:00:04.319Z,15.86
2018-05-31T05:05:04.316Z,16.04
2018-05-31T05:10:04.339Z,16.19
2018-05-31T05:15:04.327Z,16.37
2018-05-31T05:20:04.333Z,16.54
2018-05-31T05:25:04.344Z,16.69
2018-05-31T05:30:04.332Z,16.92
2018-05-31T05:35:04.333Z,17.17
2018-05-31T05:40:04.354Z,17.44
2018-05-31T05:45:04.354Z,17.98
2018-05-31T05:50:04.356Z,18.69
2018-05-31T05:55:04.391Z,18.78
2018-05-31T06:00:04.351Z,18.74
2018-05-31T06:05:04.352Z,18.81
2018-05-31T06:10:04.388Z,18.92
2018-05-31T06:15:04.402Z,19.08
2018-05-31T06:20:04.368Z,19.22
2018-05-31T06:25:04.384Z,19.43
2018-05-31T06:30:04.366Z,19.73
2018-05-31T06:35:04.371Z,20.04
2018-05-31T06:40:04.377Z,20.39
2018-05-31T06:45:04.373Z,21.25
2018-05-31T06:50:04.376Z,22.18
2018-05-31T06:55:04.395Z,23.28
2018-05-31T07:00:04.378Z,24.23
2018-05-31T07:05:04.387Z,25.08
2018-05-31T07:10:04.390Z,25.73
2018-05-31T07:15:04.393Z,26.01
2018-05-31T07:20:04.389Z,26.47
2018-05-31T07:25:03.396Z,26.91
2018-05-31T07:30:03.414Z,27.43
2018-05-31T07:35:03.417Z,28.27
2018-05-31T07:40:03.405Z,28.53
2018-05-31T07:45:03.414Z,29.17
2018-05-31T07:50:03.408Z,29.13
2018-05-31T07:55:03.425Z,29.07
2018-05-31T08:00:03.415Z,29.05
2018-05-31T08:05:03.417Z,29.59
2018-05-31T08:10:03.437Z,30.34
2018-05-31T08:15:03.426Z,30.87
2018-05-31T08:20:03.423Z,30.85
2018-05-31T08:25:03.443Z,31.12
2018-05-31T08:30:03.428Z,31.39
2018-05-31T08:35:03.430Z,31.42
2018-05-31T08:40:03.437Z,31.27
2018-05-31T08:45:03.438Z,31.33
2018-05-31T08:50:03.440Z,31.42
2018-05-31T08:55:03.449Z,31.59
2018-05-31T09:00:03.444Z,31.64
2018-05-31T09:05:03.452Z,31.95
2018-05-31T09:10:03.455Z,31.97
2018-05-31T09:15:03.454Z,32.48
2018-05-31T09:20:03.457Z,32.82
2018-05-31T09:25:03.473Z,33.3
2018-05-31T09:30:03.461Z,33.21
2018-05-31T09:35:03.498Z,33.19
2018-05-31T09:40:03.473Z,33.04
2018-05-31T09:45:03.472Z,33.15
2018-05-31T09:50:03.470Z,33.11
2018-05-31T09:55:03.480Z,33.07
2018-05-31T10:00:03.475Z,32.94
2018-05-31T10:05:03.478Z,32.6
2018-05-31T10:10:03.483Z,33.68
2018-05-31T10:15:03.484Z,35.08
2018-05-31T10:20:03.484Z,35.25
2018-05-31T10:25:03.493Z,36.4
2018-05-31T10:30:03.492Z,36.75
2018-05-31T10:35:03.496Z,35.8
2018-05-31T10:40:03.501Z,34.25
2018-05-31T10:45:03.517Z,34.61
2018-05-31T10:50:03.504Z,34.64
2018-05-31T10:55:03.508Z,34.49
2018-05-31T11:00:03.525Z,34.04
2018-05-31T11:05:03.517Z,34.08
2018-05-31T11:10:03.513Z,35.19
2018-05-31T11:15:03.593Z,36.27
2018-05-31T11:20:03.590Z,37.41
2018-05-31T11:25:03.526Z,37.66
2018-05-31T11:30:03.539Z,38.05
2018-05-31T11:35:03.536Z,38.24
2018-05-31T11:40:03.538Z,37.67
2018-05-31T11:45:03.596Z,37.73
2018-05-31T11:50:03.540Z,37.95
2018-05-31T11:55:03.550Z,38.47
2018-05-31T12:00:03.566Z,39.09
2018-05-31T12:05:03.563Z,38.61
2018-05-31T12:10:03.558Z,40.25
2018-05-31T12:15:03.859Z,39.43
2018-05-31T12:20:03.573Z,38.79
2018-05-31T12:25:03.581Z,37.17
2018-05-31T12:30:03.571Z,36.44
2018-05-31T12:35:03.580Z,35.42
2018-05-31T12:40:03.588Z,36.88
2018-05-31T12:45:03.586Z,37.49
2018-05-31T12:50:03.573Z,38.6
2018-05-31T12:55:03.587Z,39.63
2018-05-31T13:00:03.594Z,39.85
2018-05-31T13:05:03.584Z,40.58
2018-05-31T13:10:03.577Z,37.85
2018-05-31T13:15:03.595Z,35.19
2018-05-31T13:20:03.586Z,33.37
2018-05-31T13:25:03.589Z,32.05
2018-05-31T13:30:03.601Z,31.57
2018-05-31T13:35:03.590Z,31.74
2018-05-31T13:40:03.597Z,31.86
2018-05-31T13:45:03.602Z,31.13
2018-05-31T13:50:03.600Z,30.64
2018-05-31T13:55:03.609Z,31.52
2018-05-31T14:00:03.611Z,33.14
2018-05-31T14:05:03.650Z,34.34
2018-05-31T14:10:03.614Z,34.9
2018-05-31T14:15:03.613Z,36.61
2018-05-31T14:20:03.631Z,37.02
2018-05-31T14:25:03.631Z,36.51
2018-05-31T14:30:03.626Z,36.73
2018-05-31T14:35:03.641Z,37.71
2018-05-31T14:40:03.633Z,37.82
2018-05-31T14:45:03.639Z,38.18
2018-05-31T14:50:03.638Z,38.37
2018-05-31T14:55:03.657Z,38.37
2018-05-31T15:00:03.715Z,38.62
2018-05-31T15:05:03.648Z,38.92
2018-05-31T15:10:03.660Z,38.99
2018-05-31T15:15:03.668Z,39.23
2018-05-31T15:20:03.668Z,38.54
2018-05-31T15:25:03.673Z,38.23
2018-05-31T15:30:03.666Z,38.15
2018-05-31T15:35:03.669Z,38.41
2018-05-31T15:40:03.674Z,38.5
2018-05-31T15:45:03.672Z,38.47
2018-05-31T15:50:03.686Z,38.61
2018-05-31T15:55:03.677Z,38.53
2018-05-31T16:00:03.684Z,38.24
2018-05-31T16:05:03.692Z,38.7
2018-05-31T16:10:03.683Z,38.65
2018-05-31T16:15:03.688Z,37.92
2018-05-31T16:20:03.755Z,37.47
2018-05-31T16:25:03.692Z,36.59
2018-05-31T16:30:03.689Z,36.21
2018-05-31T16:35:03.721Z,34.93
2018-05-31T16:40:03.705Z,32.7
2018-05-31T16:45:03.704Z,31.18
2018-05-31T16:50:03.698Z,30.51
2018-05-31T16:55:03.706Z,30.1
2018-05-31T17:00:03.710Z,29.87
2018-05-31T17:05:03.711Z,29.57
2018-05-31T17:10:03.714Z,29.15
2018-05-31T17:15:03.717Z,28.94
2018-05-31T17:20:03.720Z,28.75
2018-05-31T17:25:03.724Z,28.67
2018-05-31T17:30:03.719Z,28.41
2018-05-31T17:35:03.737Z,28.23
2018-05-31T17:40:03.750Z,28
2018-05-31T17:45:03.910Z,27.75
2018-05-31T17:50:03.731Z,27.53
2018-05-31T17:55:03.755Z,27.19
2018-05-31T18:00:03.743Z,26.84
2018-05-31T18:05:03.750Z,26.56
2018-05-31T18:10:03.751Z,26.19
2018-05-31T18:15:03.752Z,25.81
2018-05-31T18:20:03.759Z,25.47
2018-05-31T18:25:03.767Z,25.12
2018-05-31T18:30:03.902Z,24.87
2018-05-31T18:35:03.819Z,24.61
2018-05-31T18:40:03.841Z,24.29
2018-05-31T18:45:03.769Z,24.09
2018-05-31T18:50:03.768Z,23.87
2018-05-31T18:55:03.774Z,23.66
2018-05-31T19:00:03.779Z,23.45
2018-05-31T19:05:03.780Z,23.26
2018-05-31T19:10:03.784Z,23.06
2018-05-31T19:15:03.794Z,22.91
2018-05-31T19:20:03.789Z,22.73
2018-05-31T19:25:03.789Z,22.54
2018-05-31T19:30:03.797Z,22.38
2018-05-31T19:35:03.795Z,22.22
2018-05-31T19:40:03.800Z,22.1
2018-05-31T19:45:03.802Z,21.96
2018-05-31T19:50:03.802Z,21.82
2018-05-31T19:55:03.805Z,21.74
2018-05-31T20:00:03.814Z,21.67
2018-05-31T20:05:03.805Z,21.6
2018-05-31T20:10:03.812Z,21.54
2018-05-31T20:15:03.815Z,21.49
2018-05-31T20:20:03.842Z,21.34
2018-05-31T20:25:03.824Z,21.22
2018-05-31T20:30:03.822Z,21.19
2018-05-31T20:35:03.837Z,21.61
2018-05-31T20:40:03.833Z,21.66
2018-05-31T20:45:03.829Z,21.72
2018-05-31T20:50:03.834Z,21.64
2018-05-31T20:55:03.857Z,21.5
2018-05-31T21:00:03.845Z,21.36
2018-05-31T21:05:03.844Z,21.18
2018-05-31T21:10:03.851Z,21
2018-05-31T21:15:03.846Z,20.86
2018-05-31T21:20:03.854Z,20.83
2018-05-31T21:25:06.368Z,20.75
2018-05-31T21:30:03.862Z,20.68
2018-05-31T21:35:03.853Z,20.65
2018-05-31T21:40:03.864Z,20.56
2018-05-31T21:45:03.875Z,20.42
2018-05-31T21:50:03.865Z,20.27
2018-05-31T21:55:03.865Z,20.15
2018-05-31T22:00:03.877Z,20
2018-05-31T22:05:03.880Z,19.87
2018-05-31T22:10:03.878Z,19.87
2018-05-31T22:15:03.893Z,20
2018-05-31T22:20:03.877Z,20.13
2018-05-31T22:25:03.879Z,20.11
2018-05-31T22:30:03.887Z,19.97
2018-05-31T22:35:03.888Z,19.85
2018-05-31T22:40:03.885Z,19.74
2018-05-31T22:45:03.912Z,19.82
2018-05-31T22:50:03.898Z,19.83
2018-05-31T22:55:03.898Z,19.91
2018-05-31T23:00:03.913Z,20.02
2018-05-31T23:05:03.899Z,20.06
2018-05-31T23:10:03.903Z,20.37
2018-05-31T23:15:03.929Z,20.46
2018-05-31T23:20:03.915Z,20.46
2018-05-31T23:25:03.911Z,20.57
2018-05-31T23:30:03.933Z,20.57
2018-05-31T23:35:03.916Z,20.69
2018-05-31T23:40:03.919Z,20.6
2018-05-31T23:45:03.924Z,19.84
2018-05-31T23:50:03.945Z,19.41
2018-05-31T23:55:03.927Z,19.09
